Time;durP1;ratioP1;P1;durP2;ratioP2;P2;SDS_P1;SDS_P2;PMS_P1;PMS_P2;Temp;Humidity;BMP_temperature;BMP_pressure;BME280_temperature;BME280_humidity;BME280_pressure;Samples;Min_cycle;Max_cycle;Signal;HPM_P1;HPM_P2
2022/11/14 00:01:14;;;;;;;;;;;;;;;4.89;100.00;100979.72;5011432;28;19980;-85
2022/11/14 00:03:58;;;;;;;;;;;;;;;4.89;100.00;100983.28;5011921;28;20257;-85
2022/11/14 00:06:42;;;;;;;;;;;;;;;4.90;100.00;100973.03;5011289;28;19924;-86
2022/11/14 00:09:26;;;;;;;;;;;;;;;4.90;100.00;100981.28;5011813;28;19984;-85
2022/11/14 00:12:11;;;;;;;;;;;;;;;4.85;100.00;100981.66;4996021;28;19932;-85
2022/11/14 00:14:54;;;;;;;;;;;;;;;4.85;100.00;100984.41;4996379;28;19971;-85
2022/11/14 00:17:38;;;;;;;;;;;;;;;4.80;100.00;100979.22;4996762;28;20005;-85
2022/11/14 00:20:22;;;;;;;;;;;;;;;4.74;100.00;100977.97;4996503;28;20284;-85
2022/11/14 00:23:06;;;;;;;;;;;;;;;4.69;100.00;100979.88;5000597;28;20016;-85
2022/11/14 00:25:50;;;;;;;;;;;;;;;4.61;100.00;100983.69;5002714;28;19928;-85
2022/11/14 00:28:34;;;;;;;;;;;;;;;4.59;100.00;100975.06;5011081;28;20030;-85
2022/11/14 00:31:18;;;;;;;;;;;;;;;4.55;100.00;100979.72;4997377;28;19932;-85
2022/11/14 00:34:02;;;;;;;;;;;;;;;4.52;100.00;100977.72;5000679;28;20021;-85
2022/11/14 00:36:46;;;;;;;;;;;;;;;4.48;100.00;100973.34;5015309;28;20332;-85
2022/11/14 00:39:30;;;;;;;;;;;;;;;4.42;100.00;100978.34;4985870;28;19936;-85
2022/11/14 00:42:14;;;;;;;;;;;;;;;4.35;100.00;100980.22;4987426;28;20447;-85
2022/11/14 00:44:58;;;;;;;;;;;;;;;4.28;100.00;100986.44;5014963;28;19947;-85
2022/11/14 00:47:42;;;;;;;;;;;;;;;4.27;100.00;100995.81;5000875;28;19929;-85
2022/11/14 00:50:26;;;;;;;;;;;;;;;4.26;100.00;100999.72;5013835;28;20078;-85
2022/11/14 00:53:10;;;;;;;;;;;;;;;4.27;100.00;100984.03;4999978;28;19928;-85
2022/11/14 00:55:54;;;;;;;;;;;;;;;4.35;100.00;100992.00;5015193;28;19928;-85
2022/11/14 00:58:38;;;;;;;;;;;;;;;4.34;100.00;100987.66;4999582;28;20669;-85
2022/11/14 01:01:22;;;;;;;;;;;;;;;4.28;100.00;100982.88;4997479;28;19928;-85
2022/11/14 01:04:06;;;;;;;;;;;;;;;4.20;100.00;100976.50;4985300;28;20232;-85
2022/11/14 01:06:50;;;;;;;;;;;;;;;4.01;100.00;100971.09;5013097;28;20159;-85
2022/11/14 01:09:34;;;;;;;;;;;;;;;3.95;100.00;100972.59;5014250;28;19932;-85
2022/11/14 01:12:18;;;;;;;;;;;;;;;3.80;100.00;100965.31;4983057;28;19975;-85
2022/11/14 01:15:02;;;;;;;;;;;;;;;3.72;100.00;100972.66;5009718;28;20509;-85
2022/11/14 01:17:46;;;;;;;;;;;;;;;3.73;100.00;100972.25;4999391;28;19927;-85
2022/11/14 01:20:30;;;;;;;;;;;;;;;3.71;100.00;100958.13;5010563;28;19928;-85
2022/11/14 01:23:15;;;;;;;;;;;;;;;3.69;100.00;100959.66;4999929;28;19960;-85
2022/11/14 01:26:05;;;;;;;;;;;;;;;3.73;100.00;100966.78;5007077;28;19929;-85
2022/11/14 01:28:49;;;;;;;;;;;;;;;3.69;100.00;100960.44;5013141;28;19929;-85
2022/11/14 01:31:33;;;;;;;;;;;;;;;3.71;100.00;100958.13;4984700;28;19975;-85
2022/11/14 01:34:17;;;;;;;;;;;;;;;3.70;100.00;100959.28;4985218;28;19991;-85
2022/11/14 01:37:01;;;;;;;;;;;;;;;3.72;100.00;100954.22;4984678;28;19980;-85
2022/11/14 01:39:45;;;;;;;;;;;;;;;3.77;100.00;100947.63;4984839;28;20336;-85
2022/11/14 01:42:29;;;;;;;;;;;;;;;3.80;100.00;100932.38;5012439;28;19928;-86
2022/11/14 01:45:32;;;;;;;;;;;;;;;3.79;100.00;100926.09;4999178;28;19928;-85
2022/11/14 01:48:29;;;;;;;;;;;;;;;3.80;100.00;100932.38;5007300;28;19967;-85
2022/11/14 01:51:33;;;;;;;;;;;;;;;3.74;100.00;100932.69;4997680;28;19929;-85
2022/11/14 01:54:22;;;;;;;;;;;;;;;3.76;100.00;100929.59;5010374;28;19929;-86
2022/11/14 01:57:05;;;;;;;;;;;;;;;3.78;100.00;100919.03;4983983;28;19968;-85
2022/11/14 01:59:51;;;;;;;;;;;;;;;3.71;100.00;100924.41;4996443;28;19932;-85
2022/11/14 02:02:35;;;;;;;;;;;;;;;3.82;100.00;100924.56;4998975;28;20056;-85
2022/11/14 02:05:19;;;;;;;;;;;;;;;3.84;100.00;100935.97;4998961;28;19928;-85
2022/11/14 02:08:03;;;;;;;;;;;;;;;3.90;100.00;100937.22;4997478;28;20023;-85
2022/11/14 02:10:46;;;;;;;;;;;;;;;3.94;100.00;100927.09;4998703;28;19928;-85
2022/11/14 02:13:30;;;;;;;;;;;;;;;4.06;100.00;100924.13;4996608;28;19975;-85
2022/11/14 02:16:14;;;;;;;;;;;;;;;4.19;100.00;100917.25;4982192;28;20961;-85
2022/11/14 02:18:58;;;;;;;;;;;;;;;4.28;100.00;100919.72;4997540;28;19975;-85
2022/11/14 02:21:42;;;;;;;;;;;;;;;4.38;100.00;100919.84;4994074;28;19975;-85
2022/11/14 02:24:27;;;;;;;;;;;;;;;4.44;100.00;100926.59;4989613;28;19976;-85
2022/11/14 02:27:11;;;;;;;;;;;;;;;4.51;100.00;100928.63;4984094;28;19945;-85
2022/11/14 02:30:02;;;;;;;;;;;;;;;4.53;100.00;100918.84;5011415;28;20431;-86
2022/11/14 02:32:46;;;;;;;;;;;;;;;4.53;100.00;100918.84;4997749;28;20019;-85
2022/11/14 02:35:30;;;;;;;;;;;;;;;4.51;100.00;100912.94;5013229;28;19925;-85
2022/11/14 02:38:14;;;;;;;;;;;;;;;4.41;100.00;100919.09;4995823;28;19928;-85
2022/11/14 02:40:58;;;;;;;;;;;;;;;4.34;100.00;100915.47;4996079;28;19963;-85
2022/11/14 02:43:42;;;;;;;;;;;;;;;4.12;100.00;100911.66;5013247;28;19929;-84
2022/11/14 02:46:26;;;;;;;;;;;;;;;4.20;100.00;100913.34;4984925;28;19924;-85
2022/11/14 02:49:10;;;;;;;;;;;;;;;4.15;100.00;100905.41;4995926;28;19932;-85
2022/11/14 02:51:54;;;;;;;;;;;;;;;4.07;100.00;100920.22;4975178;28;19929;-86
2022/11/14 02:54:38;;;;;;;;;;;;;;;4.09;100.00;100918.69;4996982;28;20027;-85
2022/11/14 02:57:22;;;;;;;;;;;;;;;4.12;100.00;100919.91;4997825;28;19940;-85
2022/11/14 03:00:06;;;;;;;;;;;;;;;4.09;100.00;100917.88;5010659;28;19982;-85
2022/11/14 03:02:51;;;;;;;;;;;;;;;4.03;100.00;100913.88;5011888;28;20292;-85
2022/11/14 03:05:35;;;;;;;;;;;;;;;4.11;100.00;100918.31;4997987;28;20428;-85
2022/11/14 03:08:20;;;;;;;;;;;;;;;4.18;100.00;100913.69;4995633;28;19971;-85
2022/11/14 03:11:07;;;;;;;;;;;;;;;4.24;100.00;100914.19;5011325;28;20404;-85
2022/11/14 03:13:51;;;;;;;;;;;;;;;4.27;100.00;100915.38;5011859;28;20448;-86
2022/11/14 03:16:35;;;;;;;;;;;;;;;4.35;100.00;100909.59;5011849;28;19974;-85
2022/11/14 03:19:19;;;;;;;;;;;;;;;4.40;100.00;100897.50;5012127;28;19933;-85
2022/11/14 03:22:03;;;;;;;;;;;;;;;4.32;100.00;100904.88;4997482;28;20408;-85
2022/11/14 03:24:47;;;;;;;;;;;;;;;4.36;100.00;100894.72;4983737;28;20337;-85
2022/11/14 03:27:31;;;;;;;;;;;;;;;4.40;100.00;100889.25;4982300;28;20290;-85
2022/11/14 03:30:15;;;;;;;;;;;;;;;4.42;100.00;100893.19;4996588;28;20285;-86
2022/11/14 03:32:58;;;;;;;;;;;;;;;4.47;100.00;100903.06;4994897;28;19928;-85
2022/11/14 03:35:43;;;;;;;;;;;;;;;4.49;100.00;100896.03;4996621;28;19924;-85
2022/11/14 03:38:26;;;;;;;;;;;;;;;4.57;100.00;100894.94;4968320;28;20448;-85
2022/11/14 03:41:10;;;;;;;;;;;;;;;4.58;100.00;100909.47;4965391;28;19964;-85
2022/11/14 03:43:54;;;;;;;;;;;;;;;4.57;100.00;100877.69;4991976;28;20408;-85
2022/11/14 03:46:38;;;;;;;;;;;;;;;4.59;100.00;100897.31;4991584;28;19924;-85
2022/11/14 03:49:22;;;;;;;;;;;;;;;4.63;100.00;100898.94;5017157;23;20293;-81
2022/11/14 03:52:06;;;;;;;;;;;;;;;4.70;100.00;100898.22;5029640;28;20391;-81
2022/11/14 03:54:52;;;;;;;;;;;;;;;4.74;100.00;100903.75;5015012;28;20210;-81
2022/11/14 03:57:36;;;;;;;;;;;;;;;4.82;100.00;100895.22;5030480;28;19928;-81
2022/11/14 04:00:20;;;;;;;;;;;;;;;4.80;100.00;100903.06;5027262;28;19979;-80
2022/11/14 04:03:04;;;;;;;;;;;;;;;4.81;100.00;100892.84;5013741;28;19967;-81
2022/11/14 04:05:48;;;;;;;;;;;;;;;4.84;100.00;100894.84;5017214;28;19971;-80
2022/11/14 04:08:32;;;;;;;;;;;;;;;4.89;100.00;100889.00;5016977;28;19979;-81
2022/11/14 04:11:16;;;;;;;;;;;;;;;4.87;100.00;100886.63;5020816;28;19928;-80
2022/11/14 04:14:00;;;;;;;;;;;;;;;4.91;100.00;100881.94;4997648;28;19944;-80
2022/11/14 04:16:44;;;;;;;;;;;;;;;4.88;100.00;100876.44;5029978;28;19928;-81
2022/11/14 04:19:28;;;;;;;;;;;;;;;4.81;100.00;100871.66;5024747;28;20032;-81
2022/11/14 04:22:12;;;;;;;;;;;;;;;4.81;100.00;100857.13;5024458;28;19948;-80
2022/11/14 04:24:56;;;;;;;;;;;;;;;4.81;100.00;100866.16;5023333;28;20021;-80
2022/11/14 04:27:40;;;;;;;;;;;;;;;4.80;100.00;100874.78;5022935;28;19976;-81
2022/11/14 04:30:24;;;;;;;;;;;;;;;4.73;100.00;100880.22;5013322;28;19928;-81
2022/11/14 04:33:07;;;;;;;;;;;;;;;4.78;100.00;100885.34;5027606;28;19948;-80
2022/11/14 04:35:51;;;;;;;;;;;;;;;4.80;100.00;100885.78;5020173;28;19932;-81
2022/11/14 04:38:35;;;;;;;;;;;;;;;4.83;100.00;100866.56;5019415;28;19928;-81
2022/11/14 04:41:19;;;;;;;;;;;;;;;4.90;100.00;100882.31;5029003;28;19967;-81
2022/11/14 04:44:03;;;;;;;;;;;;;;;4.94;100.00;100883.16;5013619;28;19943;-81
2022/11/14 04:46:47;;;;;;;;;;;;;;;4.96;100.00;100883.56;4996943;28;19976;-81
2022/11/14 04:49:31;;;;;;;;;;;;;;;4.99;100.00;100885.56;5024748;28;19990;-81
2022/11/14 04:52:15;;;;;;;;;;;;;;;5.00;100.00;100873.41;5019982;28;20308;-80
2022/11/14 04:54:59;;;;;;;;;;;;;;;5.03;100.00;100884.44;5015126;28;19930;-80
2022/11/14 04:57:43;;;;;;;;;;;;;;;5.05;100.00;100884.06;5024339;28;20411;-81
2022/11/14 05:00:27;;;;;;;;;;;;;;;5.10;100.00;100894.69;5019694;28;19928;-81
2022/11/14 05:03:11;;;;;;;;;;;;;;;5.13;100.00;100888.44;5015577;28;19928;-81
2022/11/14 05:05:59;;;;;;;;;;;;;;;5.14;100.00;100884.50;5015048;28;20023;-81
2022/11/14 05:08:43;;;;;;;;;;;;;;;5.12;100.00;100886.88;5023499;28;19979;-81
2022/11/14 05:11:27;;;;;;;;;;;;;;;5.13;100.00;100885.69;4998752;28;19995;-81
2022/11/14 05:14:11;;;;;;;;;;;;;;;5.16;100.00;100882.19;5013371;28;20268;-81
2022/11/14 05:16:55;;;;;;;;;;;;;;;5.14;100.00;100879.81;5014433;28;19964;-81
2022/11/14 05:19:39;;;;;;;;;;;;;;;5.16;100.00;100893.97;5022282;28;19947;-81
2022/11/14 05:22:23;;;;;;;;;;;;;;;5.21;100.00;100901.09;5006752;28;20025;-81
2022/11/14 05:25:07;;;;;;;;;;;;;;;5.17;100.00;100892.03;5022338;28;20507;-80
2022/11/14 05:27:51;;;;;;;;;;;;;;;5.15;100.00;100884.16;5017987;28;19960;-80
2022/11/14 05:30:35;;;;;;;;;;;;;;;5.16;100.00;100882.19;5026665;28;20022;-81
2022/11/14 05:33:19;;;;;;;;;;;;;;;5.18;100.00;100885.34;5037927;28;19933;-81
2022/11/14 05:36:13;;;;;;;;;;;;;;;5.23;100.00;100898.75;5032078;28;19928;-79
2022/11/14 05:38:58;;;;;;;;;;;;;;;5.24;100.00;100894.81;5039672;28;19932;-79
2022/11/14 05:41:42;;;;;;;;;;;;;;;5.29;100.00;100891.72;5030507;28;19942;-81
2022/11/14 05:44:26;;;;;;;;;;;;;;;5.31;100.00;100889.38;5020771;28;20293;-81
2022/11/14 05:52:36;;;;;;;;;;;;;;;5.37;100.00;100876.88;5030273;28;20327;-87
2022/11/14 05:55:19;;;;;;;;;;;;;;;5.41;100.00;100876.88;5024400;28;19974;-87
2022/11/14 05:58:03;;;;;;;;;;;;;;;5.42;100.00;100872.97;5022191;28;19936;-86
2022/11/14 06:00:47;;;;;;;;;;;;;;;5.45;100.00;100884.00;5010757;28;19955;-86
2022/11/14 06:03:35;;;;;;;;;;;;;;;5.44;100.00;100865.91;5007894;28;19979;-86
2022/11/14 06:06:20;;;;;;;;;;;;;;;5.45;100.00;100884.00;5007449;28;20435;-86
2022/11/14 06:09:04;;;;;;;;;;;;;;;5.42;100.00;100873.75;5000366;28;19968;-86
2022/11/14 06:11:47;;;;;;;;;;;;;;;5.46;100.00;100871.03;5009908;28;19972;-86
2022/11/14 06:14:31;;;;;;;;;;;;;;;5.41;100.00;100882.41;5000989;23;19952;-78
2022/11/14 06:17:15;;;;;;;;;;;;;;;5.45;100.00;100878.50;4990077;28;20347;-78
2022/11/14 06:19:59;;;;;;;;;;;;;;;5.50;100.00;100875.38;4994631;28;19929;-78
2022/11/14 06:22:43;;;;;;;;;;;;;;;5.48;100.00;100885.97;4990514;28;19944;-78
2022/11/14 06:25:27;;;;;;;;;;;;;;;5.47;100.00;100887.16;4992297;28;19945;-78
2022/11/14 06:28:11;;;;;;;;;;;;;;;5.49;100.00;100876.56;5006500;28;19974;-78
2022/11/14 06:30:55;;;;;;;;;;;;;;;5.52;100.00;100888.75;5005315;28;20370;-78
2022/11/14 06:33:39;;;;;;;;;;;;;;;5.51;100.00;100892.69;4977717;28;19953;-83
2022/11/14 06:36:23;;;;;;;;;;;;;;;5.56;100.00;100890.38;5001092;28;19991;-83
2022/11/14 06:39:07;;;;;;;;;;;;;;;5.62;100.00;100888.81;5000450;28;19948;-84
2022/11/14 06:41:51;;;;;;;;;;;;;;;5.64;100.00;100886.50;4993302;28;20032;-83
2022/11/14 06:44:35;;;;;;;;;;;;;;;5.64;100.00;100899.47;4985040;28;19932;-83
2022/11/14 06:47:19;;;;;;;;;;;;;;;5.67;100.00;100898.69;4996059;28;20291;-84
2022/11/14 06:50:04;;;;;;;;;;;;;;;5.67;100.00;100900.66;4990597;28;19964;-85
2022/11/14 06:52:48;;;;;;;;;;;;;;;5.68;100.00;100888.47;4991933;28;19980;-77
2022/11/14 06:55:32;;;;;;;;;;;;;;;5.68;100.00;100882.97;4991836;28;19945;-77
2022/11/14 06:58:16;;;;;;;;;;;;;;;5.64;100.00;100883.75;4991263;28;20298;-77
2022/11/14 07:01:04;;;;;;;;;;;;;;;5.68;100.00;100891.22;4983208;28;19928;-77
2022/11/14 07:03:48;;;;;;;;;;;;;;;5.71;100.00;100906.97;4952848;29;20300;-76
2022/11/14 07:06:33;;;;;;;;;;;;;;;5.71;100.00;100906.97;4952662;29;19925;-76
2022/11/14 07:09:16;;;;;;;;;;;;;;;5.62;100.00;100904.56;4952454;29;20299;-86
2022/11/14 07:12:00;;;;;;;;;;;;;;;5.56;100.00;100906.88;4952733;29;19970;-86
2022/11/14 07:14:44;;;;;;;;;;;;;;;5.57;100.00;100891.94;4953304;28;19929;-86
2022/11/14 07:17:28;;;;;;;;;;;;;;;5.62;100.00;100899.06;4954751;29;20395;-86
2022/11/14 07:20:13;;;;;;;;;;;;;;;5.65;100.00;100898.28;4953957;29;19928;-86
2022/11/14 07:22:57;;;;;;;;;;;;;;;5.71;100.00;100909.72;4954436;29;19930;-86
2022/11/14 07:25:41;;;;;;;;;;;;;;;5.63;100.00;100912.44;4963549;28;19929;-86
2022/11/14 07:28:25;;;;;;;;;;;;;;;5.65;100.00;100909.31;4973069;28;19977;-86
2022/11/14 07:31:11;;;;;;;;;;;;;;;5.69;100.00;100898.31;4973120;28;19984;-87
2022/11/14 07:33:55;;;;;;;;;;;;;;;5.71;100.00;100901.47;4973658;28;20288;-86
2022/11/14 07:36:39;;;;;;;;;;;;;;;5.80;100.00;100893.66;4973333;28;19929;-87
2022/11/14 07:39:23;;;;;;;;;;;;;;;5.81;100.00;100895.25;4972745;28;19937;-87
2022/11/14 07:42:07;;;;;;;;;;;;;;;5.78;100.00;100890.53;4973056;28;19995;-87
2022/11/14 07:44:51;;;;;;;;;;;;;;;5.71;100.00;100888.50;4972971;28;20026;-87
2022/11/14 07:47:35;;;;;;;;;;;;;;;5.73;100.00;100890.88;4958831;28;19925;-87
2022/11/14 07:50:19;;;;;;;;;;;;;;;5.74;100.00;100881.44;4972804;28;19929;-87
2022/11/14 07:53:03;;;;;;;;;;;;;;;5.74;100.00;100887.75;4973514;28;19977;-87
2022/11/14 07:55:47;;;;;;;;;;;;;;;5.82;100.00;100888.56;4973099;28;19924;-87
2022/11/14 07:58:33;;;;;;;;;;;;;;;5.71;100.00;100884.94;4972911;28;19928;-87
2022/11/14 08:01:17;;;;;;;;;;;;;;;5.75;100.00;100891.25;4972302;28;20033;-87
2022/11/14 08:04:01;;;;;;;;;;;;;;;5.73;100.00;100882.63;4973072;28;19933;-87
2022/11/14 08:06:45;;;;;;;;;;;;;;;5.74;100.00;100886.94;4973147;28;20065;-87
2022/11/14 08:09:29;;;;;;;;;;;;;;;5.77;100.00;100881.47;4972682;28;19945;-87
2022/11/14 08:12:13;;;;;;;;;;;;;;;5.81;100.00;100873.22;4958062;28;20318;-87
2022/11/14 08:14:57;;;;;;;;;;;;;;;5.75;100.00;100866.47;4972581;28;20303;-86
2022/11/14 08:17:41;;;;;;;;;;;;;;;5.71;100.00;100871.19;4972805;28;19929;-88
2022/11/14 08:20:25;;;;;;;;;;;;;;;5.64;100.00;100867.22;4972807;28;19929;-87
2022/11/14 08:23:09;;;;;;;;;;;;;;;5.53;100.00;100869.13;4972466;28;19984;-87
2022/11/14 08:25:53;;;;;;;;;;;;;;;5.54;100.00;100865.19;4972636;28;19952;-86
2022/11/14 08:28:37;;;;;;;;;;;;;;;5.56;100.00;100873.84;4972559;28;20024;-78
2022/11/14 08:31:22;;;;;;;;;;;;;;;5.60;100.00;100869.16;4972215;28;19929;-78
2022/11/14 08:34:07;;;;;;;;;;;;;;;5.59;100.00;100862.06;4972668;28;20017;-78
2022/11/14 08:36:50;;;;;;;;;;;;;;;5.54;100.00;100867.16;4972405;28;19925;-78
2022/11/14 08:39:34;;;;;;;;;;;;;;;5.49;100.00;100865.56;4972700;28;19929;-78
2022/11/14 08:42:18;;;;;;;;;;;;;;;5.47;100.00;100865.13;4972199;28;19969;-78
2022/11/14 08:45:03;;;;;;;;;;;;;;;5.51;100.00;100870.66;4972621;28;20058;-87
2022/11/14 08:47:51;;;;;;;;;;;;;;;5.56;100.00;100862.84;4972573;28;20206;-87
2022/11/14 08:50:34;;;;;;;;;;;;;;;5.56;100.00;100873.84;4972613;28;19929;-86
2022/11/14 08:53:19;;;;;;;;;;;;;;;5.61;100.00;100870.75;4975255;28;20439;-87
2022/11/14 08:56:03;;;;;;;;;;;;;;;5.69;100.00;100876.28;4976359;28;19968;-87
2022/11/14 08:58:47;;;;;;;;;;;;;;;5.69;100.00;100865.28;4976221;28;19929;-87
2022/11/14 09:01:31;;;;;;;;;;;;;;;5.70;100.00;100864.13;4975922;28;20065;-87
2022/11/14 09:04:15;;;;;;;;;;;;;;;5.77;100.00;100869.66;4976003;28;20547;-78
2022/11/14 09:06:59;;;;;;;;;;;;;;;5.75;100.00;100863.72;4976230;28;19992;-78
2022/11/14 09:09:43;;;;;;;;;;;;;;;5.77;100.00;100866.91;4975951;28;19945;-78
2022/11/14 09:12:27;;;;;;;;;;;;;;;5.81;100.00;100870.47;4975785;28;19977;-78
2022/11/14 09:15:12;;;;;;;;;;;;;;;5.88;100.00;100871.31;4975298;28;19969;-78
2022/11/14 09:17:56;;;;;;;;;;;;;;;5.91;100.00;100861.50;4975744;28;20491;-78
2022/11/14 09:20:40;;;;;;;;;;;;;;;6.00;100.00;100861.94;4976029;28;19980;-78
2022/11/14 09:23:24;;;;;;;;;;;;;;;5.97;100.00;100868.22;4975699;28;19933;-87
2022/11/14 09:26:08;;;;;;;;;;;;;;;6.04;100.00;100865.50;4975805;28;19925;-87
2022/11/14 09:28:52;;;;;;;;;;;;;;;6.14;100.00;100864.78;4975440;28;19929;-87
2022/11/14 09:31:36;;;;;;;;;;;;;;;6.11;100.00;100860.03;4976054;28;19981;-87
2022/11/14 09:34:20;;;;;;;;;;;;;;;6.16;100.00;100856.91;4975275;28;20369;-87
2022/11/14 09:37:04;;;;;;;;;;;;;;;6.22;100.00;100855.38;4976058;28;19965;-87
2022/11/14 09:39:49;;;;;;;;;;;;;;;6.27;100.00;100845.94;4975831;28;19977;-87
2022/11/14 09:42:35;;;;;;;;;;;;;;;6.17;100.00;100850.22;4975292;28;19945;-87
2022/11/14 09:45:20;;;;;;;;;;;;;;;6.11;100.00;100842.72;4975127;28;20402;-86
2022/11/14 09:48:05;;;;;;;;;;;;;;;6.19;100.00;100849.84;4975537;28;19977;-87
2022/11/14 09:51:07;;;;;;;;;;;;;;;6.16;100.00;100839.59;4975478;28;19945;-87
2022/11/14 09:53:52;;;;;;;;;;;;;;;6.18;100.00;100840.78;4975373;28;19929;-87
2022/11/14 09:56:36;;;;;;;;;;;;;;;6.15;100.00;100844.31;4975352;28;20296;-86
2022/11/14 09:59:20;;;;;;;;;;;;;;;6.22;100.00;100838.84;4974131;28;20017;-78
2022/11/14 10:02:23;;;;;;;;;;;;;;;6.25;100.00;100831.75;4975130;28;20475;-87
2022/11/14 10:05:13;;;;;;;;;;;;;;;6.28;100.00;100826.25;4975068;28;19945;-88
2022/11/14 10:08:00;;;;;;;;;;;;;;;6.30;100.00;100826.66;4974993;28;20066;-87
2022/11/14 10:10:55;;;;;;;;;;;;;;;6.29;100.00;100814.06;4975158;28;19937;-87
2022/11/14 10:13:51;;;;;;;;;;;;;;;6.31;100.00;100811.69;4960090;28;19953;-88
2022/11/14 10:16:41;;;;;;;;;;;;;;;6.42;100.00;100808.97;4974700;28;20471;-86
2022/11/14 10:19:28;;;;;;;;;;;;;;;6.41;100.00;100801.88;4974227;28;19929;-87
2022/11/14 10:22:32;;;;;;;;;;;;;;;6.48;100.00;100801.91;4974638;28;19956;-78
2022/11/14 10:25:16;;;;;;;;;;;;;;;6.55;100.00;100802.69;4974629;28;20454;-76
2022/11/14 10:28:11;;;;;;;;;;;;;;;6.53;100.00;100783.00;4974884;28;20296;-77
2022/11/14 10:31:02;;;;;;;;;;;;;;;6.55;100.00;100786.16;4960610;28;19932;-77
2022/11/14 10:33:58;;;;;;;;;;;;;;;6.67;100.00;100785.00;4960142;28;19928;-77
2022/11/14 10:36:42;;;;;;;;;;;;;;;6.72;100.00;100783.81;4974815;28;19972;-77
2022/11/14 10:39:30;;;;;;;;;;;;;;;6.79;100.00;100783.84;4974395;28;19929;-86
2022/11/14 10:42:16;;;;;;;;;;;;;;;6.81;100.00;100787.75;4959308;28;19929;-86
2022/11/14 10:45:09;;;;;;;;;;;;;;;6.77;100.00;100784.22;4974195;28;20427;-86
2022/11/14 10:48:03;;;;;;;;;;;;;;;6.88;100.00;100787.75;4974564;28;19976;-87
2022/11/14 10:51:01;;;;;;;;;;;;;;;6.96;100.00;100783.81;4946127;28;19976;-87
2022/11/14 10:53:55;;;;;;;;;;;;;;;6.96;100.00;100783.81;4974265;28;20331;-87
2022/11/14 10:56:48;;;;;;;;;;;;;;;6.90;100.00;100782.66;4960096;28;20447;-78
2022/11/14 10:59:32;;;;;;;;;;;;;;;6.92;100.00;100785.00;4959802;28;19977;-87
2022/11/14 11:02:16;;;;;;;;;;;;;;;6.92;100.00;100783.03;4974991;28;20031;-87
2022/11/14 11:05:03;;;;;;;;;;;;;;;6.94;100.00;100785.41;4976197;28;19937;-86
2022/11/14 11:13:56;;;;;;;;;;;;;;;7.01;100.00;100763.34;4961641;28;19933;-87
2022/11/14 11:16:40;;;;;;;;;;;;;;;6.80;100.00;100774.38;4973567;28;19976;-78
2022/11/14 11:19:25;;;;;;;;;;;;;;;6.76;100.00;100773.56;4973460;28;19929;-87
2022/11/14 11:22:35;;;;;;;;;;;;;;;6.76;100.00;100774.38;4973705;28;20284;-88
2022/11/14 11:25:26;;;;;;;;;;;;;;;6.83;100.00;100762.56;4973301;28;19929;-87
2022/11/14 11:28:20;;;;;;;;;;;;;;;6.90;100.00;100757.03;4973614;28;20027;-87
2022/11/14 11:31:05;;;;;;;;;;;;;;;6.92;100.00;100757.41;4973736;28;19929;-87
2022/11/14 11:33:49;;;;;;;;;;;;;;;6.90;100.00;100751.53;4973380;28;19980;-87
2022/11/14 11:36:34;;;;;;;;;;;;;;;6.96;100.00;100744.41;4973379;28;19972;-78
2022/11/14 11:39:26;;;;;;;;;;;;;;;6.82;100.00;100752.72;4972962;28;20292;-87
2022/11/14 11:42:12;;;;;;;;;;;;;;;6.80;100.00;100746.78;4973285;28;19945;-87
2022/11/14 11:44:57;;;;;;;;;;;;;;;6.85;100.00;100738.91;4973224;28;19929;-88
2022/11/14 11:47:41;;;;;;;;;;;;;;;6.86;100.00;100729.47;4958571;28;19929;-87
2022/11/14 11:50:25;;;;;;;;;;;;;;;6.91;100.00;100725.53;4958110;28;19977;-88
2022/11/14 11:53:15;;;;;;;;;;;;;;;6.93;100.00;100723.94;4973431;28;19930;-88
2022/11/14 11:56:00;;;;;;;;;;;;;;;6.91;100.00;100725.53;4958335;28;20295;-86
2022/11/14 11:58:48;;;;;;;;;;;;;;;6.82;100.00;100719.63;4972905;28;20900;-87
2022/11/14 12:01:32;;;;;;;;;;;;;;;6.80;100.00;100717.25;4972792;28;19929;-87
2022/11/14 12:04:16;;;;;;;;;;;;;;;6.89;100.00;100706.59;4973118;28;20279;-87
2022/11/14 12:07:06;;;;;;;;;;;;;;;7.00;100.00;100712.91;4958190;28;20363;-87
2022/11/14 12:09:50;;;;;;;;;;;;;;;7.08;100.00;100712.91;4971941;28;19925;-87
2022/11/14 12:12:43;;;;;;;;;;;;;;;7.06;100.00;100705.00;4972641;28;19928;-78
2022/11/14 12:15:44;;;;;;;;;;;;;;;7.13;100.00;100704.19;4972258;28;20319;-78
2022/11/14 12:18:37;;;;;;;;;;;;;;;7.19;100.00;100708.16;4957977;28;20169;-78
2022/11/14 12:21:21;;;;;;;;;;;;;;;7.11;100.00;100706.59;4958020;28;20022;-78
2022/11/14 12:24:21;;;;;;;;;;;;;;;7.07;100.00;100695.56;4972775;28;19929;-77
2022/11/14 12:27:14;;;;;;;;;;;;;;;7.02;100.00;100701.47;4973126;28;19925;-77
2022/11/14 12:30:07;;;;;;;;;;;;;;;7.05;100.00;100692.41;4957735;28;19929;-77
2022/11/14 12:32:56;;;;;;;;;;;;;;;7.00;100.00;100681.75;4972822;28;20025;-78
2022/11/14 12:35:46;;;;;;;;;;;;;;;7.06;100.00;100693.19;4958036;28;20521;-78
2022/11/14 12:38:44;;;;;;;;;;;;;;;7.04;100.00;100697.13;4958250;28;19929;-77
2022/11/14 12:41:29;;;;;;;;;;;;;;;7.04;100.00;100691.59;4960840;28;19929;-77
2022/11/14 12:44:18;;;;;;;;;;;;;;;7.12;100.00;100684.09;4974349;28;19934;-77
2022/11/14 12:47:05;;;;;;;;;;;;;;;7.12;100.00;100681.34;4990701;28;20442;-77
2022/11/14 12:49:51;;;;;;;;;;;;;;;7.03;100.00;100679.03;4982699;28;19929;-77
2022/11/14 12:52:44;;;;;;;;;;;;;;;7.00;100.00;100676.25;4971296;28;19964;-77
2022/11/14 12:55:28;;;;;;;;;;;;;;;7.05;100.00;100670.31;4972025;28;19969;-77
2022/11/14 12:58:31;;;;;;;;;;;;;;;7.10;100.00;100680.16;4972250;28;19929;-77
2022/11/14 13:01:33;;;;;;;;;;;;;;;7.08;100.00;100664.00;4971993;28;19956;-76
2022/11/14 13:04:26;;;;;;;;;;;;;;;6.99;100.00;100661.69;4971971;28;19969;-76
2022/11/14 13:07:17;;;;;;;;;;;;;;;7.02;100.00;100649.84;4972234;28;19928;-76
2022/11/14 13:10:10;;;;;;;;;;;;;;;7.07;100.00;100654.19;4972034;28;19929;-76
2022/11/14 13:22:12;;;;;;;;;;;;;;;7.05;100.00;100653.78;4972133;28;19977;-87
2022/11/14 13:25:00;;;;;;;;;;;;;;;7.02;100.00;100644.34;4971930;28;19933;-85
2022/11/14 13:27:43;;;;;;;;;;;;;;;6.97;100.00;100643.94;4972146;28;19998;-87
2022/11/14 13:30:46;;;;;;;;;;;;;;;7.03;100.00;100639.63;4971823;28;20013;-77
2022/11/14 13:33:40;;;;;;;;;;;;;;;7.09;100.00;100651.78;4972067;28;19969;-87
2022/11/14 13:36:26;;;;;;;;;;;;;;;7.09;100.00;100654.56;4972173;28;19928;-87
2022/11/14 13:39:28;;;;;;;;;;;;;;;7.08;100.00;100646.69;4974245;28;19928;-88
2022/11/14 13:42:15;;;;;;;;;;;;;;;7.01;100.00;100634.47;4975564;28;19977;-88
2022/11/14 13:45:02;;;;;;;;;;;;;;;6.92;100.00;100628.59;4960212;28;19929;-88
2022/11/14 13:47:50;;;;;;;;;;;;;;;6.86;100.00;100623.88;4972678;28;19933;-88
2022/11/14 13:50:35;;;;;;;;;;;;;;;6.90;100.00;100624.66;4959720;28;19969;-88
2022/11/14 13:53:22;;;;;;;;;;;;;;;6.88;100.00;100627.81;4975286;28;19989;-87
2022/11/14 13:56:29;;;;;;;;;;;;;;;6.93;100.00;100618.34;4962109;28;19945;-87
2022/11/14 13:59:22;;;;;;;;;;;;;;;6.91;100.00;100616.00;4967919;28;20392;-88
2022/11/14 14:02:09;;;;;;;;;;;;;;;6.85;100.00;100616.78;4958722;28;19968;-88
2022/11/14 14:05:06;;;;;;;;;;;;;;;6.77;100.00;100610.50;4971770;28;19928;-87
2022/11/14 14:07:57;;;;;;;;;;;;;;;6.85;100.00;100619.56;4972156;28;20443;-78
2022/11/14 14:10:49;;;;;;;;;;;;;;;6.82;100.00;100621.16;4972336;28;19999;-87
2022/11/14 14:13:49;;;;;;;;;;;;;;;6.79;100.00;100612.88;4971029;28;20383;-88
2022/11/14 14:16:43;;;;;;;;;;;;;;;6.78;100.00;100622.31;4973844;28;19929;-88
2022/11/14 14:19:33;;;;;;;;;;;;;;;6.79;100.00;100612.88;4958009;28;19984;-87
2022/11/14 14:22:20;;;;;;;;;;;;;;;6.86;100.00;100618.38;4973256;28;19946;-88
2022/11/14 14:25:10;;;;;;;;;;;;;;;6.84;100.00;100609.69;4973487;28;20012;-88
2022/11/14 14:27:55;;;;;;;;;;;;;;;6.80;100.00;100617.19;4975267;28;20476;-78
2022/11/14 14:30:39;;;;;;;;;;;;;;;6.75;100.00;100601.88;4964031;28;19954;-86
2022/11/14 14:33:23;;;;;;;;;;;;;;;6.66;100.00;100601.47;4996588;28;20003;-86